Monday, June 18, 2018, 8:48 PM EDT
Back to Local

KLGA, New York La Guardia Airport

Location: Astoria, NY, United States Lat: 40.783
Local Time: 8:48 PM EDT ( 0:48 GMT) Lon: -73.883
Time Zone: US/Eastern Elev: 22 ft

Show me the last for .
Show Decoded

2018-06-18 19:51 METAR KLGA 182351Z 20012G20KT 10SM FEW050 OVC250 33/21 A2977 RMK AO2 LTG DSNT N
                 SLP081 T03280206 10333 20311 56020 =
2018-06-18 18:51 METAR KLGA 182251Z 16011KT 10SM SCT055 BKN250 32/20 A2978 RMK AO2 SLP083
                 T03170200 =
2018-06-18 17:51 METAR KLGA 182151Z 18010KT 10SM SCT055 BKN250 32/20 A2980 RMK AO2 SLP091
                 T03170200 =
2018-06-18 16:51 METAR KLGA 182051Z 18011KT 10SM SCT055 BKN250 32/20 A2983 RMK AO2 SLP101
                 T03220200 56027 =
2018-06-18 15:51 METAR KLGA 181951Z 17014G21KT 10SM SCT055 BKN250 33/19 A2985 RMK AO2 SLP108
                 T03280194 =
2018-06-18 14:51 METAR KLGA 181851Z 18013G17KT 10SM FEW055 BKN250 33/19 A2988 RMK AO2 SLP119
                 T03330194 =
2018-06-18 13:51 METAR KLGA 181751Z 17013KT 10SM FEW050 BKN250 32/19 A2991 RMK AO2 SLP128
                 T03170194 10328 20250 58022 =
2018-06-18 12:51 METAR KLGA 181651Z 16015KT 10SM FEW045 BKN250 32/20 A2994 RMK AO2 SLP138
                 T03170200 =
2018-06-18 11:51 METAR KLGA 181551Z 24009G18KT 10SM FEW055 SCT250 32/19 A2995 RMK AO2 SLP143
                 T03170189 =
2018-06-18 10:51 METAR KLGA 181451Z 22011KT 10SM BKN250 31/19 A2998 RMK AO2 SLP150 T03060189
                 58017 =
2018-06-18 09:51 METAR KLGA 181351Z 21010KT 10SM BKN250 29/19 A2999 RMK AO2 SLP156 T02890189 =
2018-06-18 08:51 METAR KLGA 181251Z 20009KT 10SM BKN250 27/19 A3001 RMK AO2 SLP162 T02670189 =
2018-06-18 07:51 METAR KLGA 181151Z 22008KT 10SM BKN250 25/18 A3003 RMK AO2 SLP167 T02500183
                 10250 20233 58003 =
2018-06-18 06:51 METAR KLGA 181051Z 19007KT 10SM BKN250 24/18 A3003 RMK AO2 SLP168 T02390183 =
2018-06-18 05:51 METAR KLGA 180951Z 18008KT 10SM BKN250 23/18 A3004 RMK AO2 SLP171 T02330178 =
2018-06-18 04:51 METAR KLGA 180851Z COR 21007KT 10SM BKN250 24/17 A3003 RMK AO2 SLP170 T02390172
                 56007 =
2018-06-18 03:51 METAR KLGA 180751Z COR 20009KT 10SM BKN250 24/17 A3004 RMK AO2 SLP171 T02390167
                 =
2018-06-18 02:51 METAR KLGA 180651Z 21006KT 10SM SCT250 24/17 A3005 RMK AO2 SLP174 T02440167 =
2018-06-18 01:51 METAR KLGA 180551Z 23008KT 10SM SCT250 24/16 A3006 RMK AO2 SLP177 T02440161
                 10278 20244 50000 =
2018-06-18 00:51 METAR KLGA 180451Z 22009KT 10SM SCT250 25/15 A3006 RMK AO2 SLP179 T02500150
                 403280194 =
2018-06-17 23:51 METAR KLGA 180351Z 21013G17KT 10SM SCT250 26/14 A3005 RMK AO2 SLP177 T02560139 =
2018-06-17 22:51 METAR KLGA 180251Z 19010KT 10SM SCT250 26/16 A3006 RMK AO2 SLP177 T02560156
                 53002 =
2018-06-17 21:51 METAR KLGA 180151Z 18006KT 10SM BKN250 26/16 A3006 RMK AO2 SLP178 T02560156 =
2018-06-17 20:51 METAR KLGA 180051Z 17006KT 10SM BKN250 27/14 A3004 RMK AO2 SLP173 T02670139 =

Support USWX by starting your Amazon purchase here.